Time;durP1;ratioP1;P1;durP2;ratioP2;P2;SDS_P1;SDS_P2;PMS_P1;PMS_P2;Temp;Humidity;BMP_temperature;BMP_pressure;BME280_temperature;BME280_humidity;BME280_pressure;Samples;Min_cycle;Max_cycle;Signal;HPM_P1;HPM_P2
2020/12/05 03:08:29;;;;;;;52.23;47.20;;;3.30;99.90;;;;;;4899747;29;21226;-76
2020/12/05 03:10:55;;;;;;;58.37;52.60;;;3.30;99.90;;;;;;4903718;29;20475;-73
2020/12/05 03:13:21;;;;;;;52.27;47.20;;;3.30;99.90;;;;;;4899037;29;20470;-76
2020/12/05 03:15:47;;;;;;;48.87;44.20;;;3.20;99.90;;;;;;4898462;29;20450;-76
2020/12/05 03:18:13;;;;;;;44.50;40.50;;;3.20;99.90;;;;;;4898332;29;20956;-74
2020/12/05 03:20:40;;;;;;;45.97;41.73;;;3.20;99.90;;;;;;4898540;29;20466;-73
2020/12/05 03:23:06;;;;;;;45.17;41.57;;;3.20;99.90;;;;;;4900564;29;20483;-73
2020/12/05 03:25:33;;;;;;;46.77;42.40;;;3.20;99.90;;;;;;4906040;29;20980;-73
2020/12/05 03:27:59;;;;;;;45.77;41.53;;;3.20;99.90;;;;;;4900897;29;21064;-75
2020/12/05 03:30:25;;;;;;;42.87;39.30;;;3.20;99.90;;;;;;4898200;29;20451;-74
2020/12/05 03:32:52;;;;;;;47.63;43.53;;;3.10;99.90;;;;;;4898481;29;20487;-74
2020/12/05 03:35:18;;;;;;;43.40;39.80;;;3.00;99.90;;;;;;4898194;29;20510;-73
2020/12/05 03:37:44;;;;;;;41.63;38.60;;;3.00;99.90;;;;;;4898101;29;20451;-74
2020/12/05 03:40:10;;;;;;;44.50;40.70;;;3.00;99.90;;;;;;4898108;29;20459;-73
2020/12/05 03:42:38;;;;;;;43.10;39.53;;;2.90;99.90;;;;;;4898102;29;20498;-72
2020/12/05 03:45:04;;;;;;;42.40;39.20;;;2.80;99.90;;;;;;4898371;29;20762;-72
2020/12/05 03:47:30;;;;;;;44.43;40.87;;;2.70;99.90;;;;;;4897870;29;20869;-71
2020/12/05 03:49:57;;;;;;;44.77;41.03;;;2.60;99.90;;;;;;4898098;29;20447;-73
2020/12/05 03:52:23;;;;;;;43.00;39.43;;;2.60;99.90;;;;;;4898034;29;20448;-72
2020/12/05 03:54:49;;;;;;;40.37;37.27;;;2.50;99.90;;;;;;4898023;29;20933;-72
2020/12/05 03:57:15;;;;;;;41.37;37.87;;;2.60;99.90;;;;;;4897889;29;20456;-73
2020/12/05 03:59:42;;;;;;;43.03;39.30;;;2.60;99.90;;;;;;4897832;29;20494;-73
2020/12/05 04:02:08;;;;;;;44.73;41.03;;;2.70;99.90;;;;;;4897801;29;20479;-74
2020/12/05 04:04:34;;;;;;;44.67;40.87;;;2.70;99.90;;;;;;4898157;29;20451;-75
2020/12/05 04:07:00;;;;;;;44.13;40.57;;;2.80;99.90;;;;;;4897820;29;20474;-74
2020/12/05 04:09:27;;;;;;;42.70;39.17;;;2.80;99.90;;;;;;4911433;29;20482;-74
2020/12/05 04:11:53;;;;;;;43.17;39.63;;;2.90;99.90;;;;;;4916455;29;20446;-77
2020/12/05 04:14:19;;;;;;;42.73;39.33;;;2.90;99.90;;;;;;4916868;29;20455;-77
2020/12/05 04:16:46;;;;;;;42.20;38.80;;;2.90;99.90;;;;;;4916454;29;20454;-78
2020/12/05 04:19:12;;;;;;;43.97;40.33;;;2.90;99.90;;;;;;4916286;29;20451;-78
2020/12/05 04:21:38;;;;;;;47.63;43.43;;;2.90;99.90;;;;;;4916510;29;20486;-79
2020/12/05 04:24:04;;;;;;;44.90;41.33;;;3.00;99.90;;;;;;4916801;29;20454;-78
2020/12/05 04:26:31;;;;;;;47.27;43.27;;;3.00;99.90;;;;;;4916414;29;20454;-79
2020/12/05 04:28:57;;;;;;;43.70;40.10;;;3.00;99.90;;;;;;4916059;29;20451;-79
2020/12/05 04:31:23;;;;;;;43.73;39.87;;;3.00;99.90;;;;;;4916688;29;20454;-79
2020/12/05 04:33:50;;;;;;;44.83;41.00;;;3.00;99.90;;;;;;4916374;29;20817;-81
2020/12/05 04:36:16;;;;;;;47.67;43.30;;;3.00;99.90;;;;;;4916277;29;20442;-81
2020/12/05 04:38:42;;;;;;;44.80;40.97;;;2.90;99.90;;;;;;4916086;29;20451;-84
2020/12/05 04:41:09;;;;;;;41.30;38.20;;;3.10;99.90;;;;;;4916388;29;20793;-86
2020/12/05 04:43:35;;;;;;;42.53;39.23;;;3.00;99.90;;;;;;4915999;29;20850;-84
2020/12/05 04:46:03;;;;;;;43.13;39.70;;;3.00;99.90;;;;;;4915895;29;20964;-85
2020/12/05 04:48:31;;;;;;;39.50;36.80;;;3.00;99.90;;;;;;4915967;29;21125;-85
2020/12/05 04:51:02;;;;;;;37.00;34.07;;;3.00;99.90;;;;;;4916113;29;20795;-84
2020/12/05 04:53:30;;;;;;;41.37;37.80;;;3.00;99.90;;;;;;4917201;29;20757;-85
2020/12/05 04:55:59;;;;;;;41.70;38.30;;;3.00;99.90;;;;;;4916154;29;20458;-84
2020/12/05 04:58:26;;;;;;;36.93;34.30;;;2.90;99.90;;;;;;4916123;29;20457;-84
2020/12/05 05:00:53;;;;;;;39.43;36.47;;;2.90;99.90;;;;;;4915961;29;20447;-81
2020/12/05 05:03:21;;;;;;;36.57;33.77;;;2.90;99.90;;;;;;4916133;29;20549;-81
2020/12/05 05:05:47;;;;;;;38.80;35.83;;;2.90;99.90;;;;;;4919048;29;20463;-80
2020/12/05 05:08:15;;;;;;;38.20;35.47;;;2.90;99.90;;;;;;4930616;29;20813;-83
2020/12/05 05:10:42;;;;;;;39.20;36.00;;;2.90;99.90;;;;;;4930087;29;20479;-83
2020/12/05 05:13:15;;;;;;;39.37;36.10;;;2.90;99.90;;;;;;4916235;29;20447;-84
2020/12/05 05:15:42;;;;;;;42.00;38.60;;;2.90;99.90;;;;;;4915598;29;20490;-83
2020/12/05 05:18:09;;;;;;;42.33;38.73;;;3.00;99.90;;;;;;4915616;29;20558;-84
2020/12/05 05:20:38;;;;;;;44.03;40.27;;;2.90;99.90;;;;;;4915267;29;20445;-80
2020/12/05 05:23:12;;;;;;;40.83;37.50;;;3.00;99.90;;;;;;4915250;29;20505;-80
2020/12/05 05:25:56;;;;;;;44.73;41.13;;;3.10;99.90;;;;;;4915410;29;20450;-84
2020/12/05 05:28:26;;;;;;;42.00;38.70;;;3.00;99.90;;;;;;4915498;29;20639;-79
2020/12/05 05:30:58;;;;;;;42.57;38.97;;;3.00;99.90;;;;;;4915445;29;20462;-78
2020/12/05 05:33:25;;;;;;;44.47;40.63;;;3.00;99.90;;;;;;4915012;29;20453;-81
2020/12/05 05:35:51;;;;;;;41.37;38.03;;;3.00;99.90;;;;;;4915182;29;20454;-80
2020/12/05 05:38:22;;;;;;;41.63;38.53;;;3.00;99.90;;;;;;4915045;29;20453;-79
2020/12/05 05:40:49;;;;;;;41.53;38.13;;;3.00;99.90;;;;;;4914878;29;20450;-80
2020/12/05 05:43:18;;;;;;;40.63;36.93;;;3.10;99.90;;;;;;4914783;29;20904;-80
2020/12/05 05:45:45;;;;;;;39.23;36.57;;;3.00;99.90;;;;;;4915098;29;20513;-79
2020/12/05 05:48:12;;;;;;;38.80;35.80;;;3.10;99.90;;;;;;4914572;29;20956;-80
2020/12/05 05:50:38;;;;;;;37.37;34.87;;;3.10;99.90;;;;;;4914972;29;20449;-79
2020/12/05 05:53:06;;;;;;;37.03;34.43;;;3.20;99.90;;;;;;4914899;29;20450;-80
2020/12/05 05:55:43;;;;;;;36.33;33.73;;;3.20;99.90;;;;;;4914723;29;20458;-80
2020/12/05 05:58:11;;;;;;;37.10;34.20;;;3.20;99.90;;;;;;4914584;29;20447;-81
2020/12/05 06:00:40;;;;;;;35.90;33.40;;;3.20;99.90;;;;;;4914885;29;20545;-82
2020/12/05 06:03:17;;;;;;;35.47;32.80;;;3.30;99.90;;;;;;4914837;29;20820;-82
2020/12/05 06:05:46;;;;;;;36.40;34.00;;;3.40;99.90;;;;;;4914539;29;20478;-81
2020/12/05 06:08:16;;;;;;;37.27;34.63;;;3.40;99.90;;;;;;4914330;29;20470;-80
2020/12/05 06:10:47;;;;;;;36.43;33.83;;;3.40;99.90;;;;;;4914790;29;20518;-79
2020/12/05 06:13:18;;;;;;;33.17;30.90;;;3.40;99.90;;;;;;4914632;29;20490;-79
2020/12/05 06:15:46;;;;;;;35.37;33.07;;;3.40;99.90;;;;;;4927526;29;20438;-79
2020/12/05 06:18:14;;;;;;;36.50;34.10;;;3.40;99.90;;;;;;4932365;29;20439;-78
2020/12/05 06:20:44;;;;;;;34.60;32.23;;;3.40;99.90;;;;;;4914900;29;20455;-79
2020/12/05 06:23:19;;;;;;;32.60;30.33;;;3.30;99.90;;;;;;4915303;29;20510;-78
2020/12/05 06:25:52;;;;;;;32.80;30.70;;;3.30;99.90;;;;;;4918400;29;20458;-77
2020/12/05 06:28:20;;;;;;;33.30;30.93;;;3.30;99.90;;;;;;4918449;29;20878;-78
2020/12/05 06:30:47;;;;;;;33.10;30.60;;;3.30;99.90;;;;;;4918553;29;20471;-81
2020/12/05 06:33:38;;;;;;;30.33;28.53;;;3.30;99.90;;;;;;4918148;29;20784;-81
2020/12/05 06:36:36;;;;;;;30.33;28.13;;;3.30;99.90;;;;;;4918543;29;20462;-80
2020/12/05 06:39:13;;;;;;;30.87;28.83;;;3.30;99.90;;;;;;4918328;29;20522;-81
2020/12/05 06:41:42;;;;;;;29.97;28.00;;;3.30;99.90;;;;;;4918095;29;20442;-78
2020/12/05 06:44:11;;;;;;;31.70;29.50;;;3.40;99.90;;;;;;4918281;29;20461;-79
2020/12/05 06:46:53;;;;;;;33.77;31.03;;;3.50;99.90;;;;;;4918099;29;20446;-79
2020/12/05 06:50:04;;;;;;;33.70;31.40;;;3.60;99.90;;;;;;4918054;29;20450;-79
2020/12/05 06:52:35;;;;;;;27.60;25.77;;;3.60;99.90;;;;;;4883442;29;20469;-79
2020/12/05 06:55:10;;;;;;;28.80;26.90;;;3.50;99.90;;;;;;4917885;29;20454;-82
2020/12/05 06:57:37;;;;;;;29.50;27.50;;;3.50;99.90;;;;;;4918050;29;20477;-80
2020/12/05 07:00:15;;;;;;;27.50;25.83;;;3.40;99.90;;;;;;4917851;29;20465;-80
2020/12/05 07:02:51;;;;;;;27.10;25.30;;;3.50;99.90;;;;;;4917658;29;20518;-82
2020/12/05 07:05:41;;;;;;;26.90;25.20;;;3.50;99.90;;;;;;4917600;29;20975;-81
2020/12/05 07:08:23;;;;;;;25.97;24.30;;;3.50;99.90;;;;;;4917682;29;20843;-81
2020/12/05 07:10:55;;;;;;;26.80;25.07;;;3.50;99.90;;;;;;4916175;29;20505;-83
2020/12/05 07:13:26;;;;;;;25.87;24.10;;;3.50;99.90;;;;;;4918679;29;20445;-83
2020/12/05 07:16:15;;;;;;;26.00;24.13;;;3.50;99.90;;;;;;4928844;29;20446;-82
2020/12/05 07:18:43;;;;;;;25.10;23.50;;;3.60;99.90;;;;;;4934294;29;20442;-82
2020/12/05 07:21:11;;;;;;;23.37;21.77;;;3.50;99.90;;;;;;4924762;29;20500;-83
2020/12/05 07:23:37;;;;;;;24.17;22.57;;;3.60;99.90;;;;;;4919134;29;20493;-76
2020/12/05 07:26:04;;;;;;;22.70;21.50;;;3.50;99.90;;;;;;4917389;29;20812;-77
2020/12/05 07:28:31;;;;;;;22.43;21.13;;;3.50;99.90;;;;;;4917304;29;20451;-80
2020/12/05 07:30:57;;;;;;;21.43;20.23;;;3.50;99.90;;;;;;4917365;29;20450;-76
2020/12/05 07:33:23;;;;;;;21.80;20.40;;;3.50;99.90;;;;;;4917376;29;20465;-80
2020/12/05 07:35:58;;;;;;;20.70;19.50;;;3.60;99.90;;;;;;4916494;29;20451;-81
2020/12/05 07:38:26;;;;;;;20.53;19.37;;;3.60;99.90;;;;;;4917126;29;20458;-82
2020/12/05 07:40:52;;;;;;;19.03;17.90;;;3.50;99.90;;;;;;4917074;29;20944;-82
2020/12/05 07:43:20;;;;;;;21.20;19.83;;;3.60;99.90;;;;;;4917245;29;20482;-82
2020/12/05 07:45:48;;;;;;;21.50;20.00;;;3.50;99.90;;;;;;4916833;29;20446;-83
2020/12/05 07:48:15;;;;;;;20.90;19.50;;;3.50;99.90;;;;;;4916854;29;20458;-85
2020/12/05 07:50:42;;;;;;;26.80;24.80;;;3.50;99.90;;;;;;4916955;29;20920;-80
2020/12/05 07:53:23;;;;;;;35.13;31.77;;;3.50;99.90;;;;;;4916929;29;20446;-81
2020/12/05 07:55:50;;;;;;;24.43;22.53;;;3.50;99.90;;;;;;4916981;29;20461;-81
2020/12/05 07:58:16;;;;;;;22.90;20.90;;;3.50;99.90;;;;;;4916835;29;20461;-81
2020/12/05 08:00:43;;;;;;;22.50;20.70;;;3.50;99.90;;;;;;4916522;29;20983;-81
2020/12/05 08:03:38;;;;;;;20.97;19.47;;;3.50;99.90;;;;;;4916889;29;20493;-81
2020/12/05 08:06:15;;;;;;;21.40;19.80;;;3.50;99.90;;;;;;4916909;29;20470;-78
2020/12/05 08:08:53;;;;;;;21.03;19.43;;;3.50;99.90;;;;;;4916480;29;20509;-77
2020/12/05 08:11:19;;;;;;;21.23;19.57;;;3.50;99.90;;;;;;4916574;29;20944;-77
2020/12/05 08:13:47;;;;;;;21.90;20.20;;;3.50;99.90;;;;;;4916680;29;20454;-77
2020/12/05 08:16:16;;;;;;;19.83;18.43;;;3.60;99.90;;;;;;4916798;29;20879;-78
2020/12/05 08:18:44;;;;;;;19.50;17.97;;;3.60;99.90;;;;;;4916590;29;20459;-80
2020/12/05 08:21:10;;;;;;;20.83;18.73;;;3.60;99.90;;;;;;4916412;29;20486;-80
2020/12/05 08:23:38;;;;;;;18.37;16.97;;;3.60;99.90;;;;;;4916505;29;20489;-80
2020/12/05 08:26:08;;;;;;;18.77;17.17;;;3.60;99.90;;;;;;4916259;29;20494;-81
2020/12/05 08:28:37;;;;;;;17.20;15.90;;;3.70;99.90;;;;;;4916677;29;20467;-85
2020/12/05 08:31:06;;;;;;;17.70;16.37;;;3.70;99.90;;;;;;4916842;29;20932;-82
2020/12/05 08:33:40;;;;;;;15.27;14.20;;;3.80;99.90;;;;;;4916282;29;20438;-79
2020/12/05 08:36:18;;;;;;;15.23;14.07;;;3.80;99.90;;;;;;4916420;29;20442;-75
2020/12/05 08:38:44;;;;;;;17.23;15.87;;;3.90;99.90;;;;;;4915976;29;20666;-75
2020/12/05 08:41:11;;;;;;;17.00;15.60;;;3.90;99.90;;;;;;4915985;29;20455;-74
2020/12/05 08:43:38;;;;;;;19.53;17.93;;;3.90;99.90;;;;;;4916168;29;21024;-75
2020/12/05 08:46:16;;;;;;;19.07;17.67;;;3.90;99.90;;;;;;4916147;29;20952;-74
2020/12/05 08:48:42;;;;;;;20.47;18.73;;;3.90;99.90;;;;;;4914945;29;20446;-74
2020/12/05 08:51:09;;;;;;;22.17;20.07;;;4.00;99.90;;;;;;4915992;29;20454;-74
2020/12/05 08:53:35;;;;;;;23.43;21.43;;;4.10;99.90;;;;;;4915834;29;20964;-76
2020/12/05 08:56:02;;;;;;;27.47;24.87;;;4.10;99.90;;;;;;4915947;29;20808;-75
2020/12/05 08:58:43;;;;;;;26.67;24.27;;;4.20;99.90;;;;;;4915538;29;20477;-75
2020/12/05 09:01:09;;;;;;;25.87;23.53;;;4.20;99.90;;;;;;4915900;29;20482;-75
2020/12/05 09:03:38;;;;;;;25.37;23.00;;;4.20;99.90;;;;;;4915728;29;20539;-73
2020/12/05 09:06:05;;;;;;;25.37;23.17;;;4.10;99.90;;;;;;4915086;29;20467;-74
2020/12/05 09:08:31;;;;;;;22.90;21.00;;;4.20;99.90;;;;;;4917333;29;20977;-73
2020/12/05 09:10:58;;;;;;;23.00;21.07;;;4.10;99.90;;;;;;4930459;29;20461;-78
2020/12/05 09:13:24;;;;;;;24.50;22.20;;;4.20;99.90;;;;;;4922130;29;20462;-77
2020/12/05 09:16:01;;;;;;;24.30;22.33;;;4.20;99.90;;;;;;4913713;29;20453;-77
2020/12/05 09:18:28;;;;;;;24.27;22.17;;;4.10;99.90;;;;;;4915290;29;20469;-77
2020/12/05 09:20:54;;;;;;;24.37;22.33;;;4.10;99.90;;;;;;4915305;29;20455;-78
2020/12/05 09:23:27;;;;;;;24.97;22.87;;;4.20;99.90;;;;;;4915452;29;20497;-77
2020/12/05 09:26:01;;;;;;;23.80;21.67;;;4.20;99.90;;;;;;4915495;29;20454;-77
2020/12/05 09:28:27;;;;;;;31.30;28.47;;;4.30;99.90;;;;;;4915154;29;20445;-78
2020/12/05 09:30:55;;;;;;;26.97;24.57;;;4.30;99.90;;;;;;4915477;29;20948;-77
2020/12/05 09:33:23;;;;;;;24.90;22.47;;;4.40;99.90;;;;;;4915399;29;20450;-77
2020/12/05 09:35:50;;;;;;;23.40;21.40;;;4.40;99.90;;;;;;4915230;29;20530;-77
2020/12/05 09:38:17;;;;;;;26.57;24.27;;;4.50;99.90;;;;;;4915020;29;20445;-76
2020/12/05 09:40:43;;;;;;;24.63;22.43;;;4.80;99.90;;;;;;4915239;29;21141;-77
2020/12/05 09:43:10;;;;;;;24.47;22.27;;;5.00;99.90;;;;;;4914975;29;20489;-77
2020/12/05 09:45:36;;;;;;;23.00;21.17;;;5.10;99.90;;;;;;4915157;29;20446;-77
2020/12/05 09:48:03;;;;;;;22.50;20.40;;;5.10;99.90;;;;;;4914944;29;20442;-76
2020/12/05 09:50:31;;;;;;;22.33;20.53;;;5.00;99.90;;;;;;4914775;29;20450;-76
2020/12/05 09:52:59;;;;;;;21.80;20.17;;;4.90;99.90;;;;;;4914516;29;20438;-76
2020/12/05 09:55:25;;;;;;;21.20;19.53;;;4.70;99.90;;;;;;4914818;29;20533;-75
2020/12/05 09:57:52;;;;;;;22.43;20.63;;;4.70;99.90;;;;;;4914819;29;20459;-75
2020/12/05 10:00:18;;;;;;;20.63;18.93;;;4.70;99.90;;;;;;4914382;29;20450;-76
2020/12/05 10:02:44;;;;;;;21.87;20.17;;;4.60;99.90;;;;;;4914622;29;20493;-76
2020/12/05 10:05:11;;;;;;;20.90;19.30;;;4.60;99.90;;;;;;4914207;29;20522;-76
2020/12/05 10:07:39;;;;;;;19.93;18.53;;;4.70;99.90;;;;;;4914950;29;20446;-76
2020/12/05 10:10:07;;;;;;;19.93;18.33;;;4.70;99.90;;;;;;4914898;29;20824;-75
2020/12/05 10:12:34;;;;;;;22.17;20.57;;;4.70;99.90;;;;;;4914802;29;20937;-75
2020/12/05 10:15:00;;;;;;;21.30;19.60;;;4.60;99.90;;;;;;4914669;29;20520;-76
2020/12/05 10:17:26;;;;;;;20.97;19.30;;;4.80;99.90;;;;;;4914514;29;20450;-75
2020/12/05 10:19:52;;;;;;;20.07;18.47;;;4.80;99.90;;;;;;4914979;29;20445;-75
2020/12/05 10:22:19;;;;;;;20.40;18.77;;;4.90;99.90;;;;;;4914773;29;20453;-75
2020/12/05 10:24:46;;;;;;;20.23;18.53;;;5.00;99.90;;;;;;4914483;29;20457;-76
2020/12/05 10:27:12;;;;;;;19.13;17.70;;;5.20;99.90;;;;;;4914421;29;20457;-84
2020/12/05 10:29:38;;;;;;;20.17;18.37;;;5.40;99.90;;;;;;4914850;29;20459;-76
2020/12/05 10:32:04;;;;;;;20.13;18.60;;;5.30;99.90;;;;;;4914786;29;20447;-76
2020/12/05 10:34:30;;;;;;;21.23;19.60;;;5.30;99.90;;;;;;4914476;29;20941;-75
2020/12/05 10:36:57;;;;;;;21.50;19.53;;;5.10;99.90;;;;;;4914473;29;20926;-75
2020/12/05 10:39:23;;;;;;;21.27;19.57;;;5.00;99.90;;;;;;4914749;29;20447;-75
2020/12/05 10:41:50;;;;;;;21.77;19.97;;;5.00;99.90;;;;;;4914531;29;20447;-75
2020/12/05 10:44:17;;;;;;;21.20;19.40;;;4.90;99.90;;;;;;4914315;29;20862;-75
2020/12/05 10:46:44;;;;;;;20.67;19.03;;;4.90;99.90;;;;;;4914421;29;20446;-75
2020/12/05 10:49:11;;;;;;;20.73;18.93;;;4.90;99.90;;;;;;4914330;29;20455;-75
2020/12/05 10:51:38;;;;;;;21.40;19.70;;;4.90;99.90;;;;;;4914437;29;20963;-75
2020/12/05 10:54:05;;;;;;;22.63;20.87;;;5.00;99.90;;;;;;4914620;29;20454;-75
2020/12/05 10:56:31;;;;;;;22.87;21.07;;;5.00;99.90;;;;;;4911654;29;20486;-74
2020/12/05 10:58:58;;;;;;;22.80;21.00;;;4.90;99.90;;;;;;4914357;29;20454;-75
2020/12/05 11:01:24;;;;;;;21.27;19.70;;;4.90;99.90;;;;;;4914521;29;20887;-75
2020/12/05 11:03:50;;;;;;;22.40;20.80;;;5.10;99.90;;;;;;4914398;29;20497;-75
2020/12/05 11:06:20;;;;;;;22.83;20.83;;;5.10;99.90;;;;;;4914215;29;20466;-75
2020/12/05 11:08:47;;;;;;;22.83;20.47;;;5.10;99.90;;;;;;4914070;29;20513;-75
2020/12/05 11:11:13;;;;;;;20.83;19.40;;;5.20;99.90;;;;;;4915400;29;20852;-75
2020/12/05 11:13:39;;;;;;;21.37;19.67;;;5.40;99.90;;;;;;4918039;29;20439;-75
2020/12/05 11:16:06;;;;;;;21.27;19.67;;;5.50;99.90;;;;;;4917966;29;20449;-75
2020/12/05 11:18:33;;;;;;;23.07;20.90;;;5.60;99.90;;;;;;4917801;29;20450;-75
2020/12/05 11:20:59;;;;;;;21.70;19.77;;;5.70;99.90;;;;;;4917700;29;20447;-75
2020/12/05 11:23:25;;;;;;;22.87;21.17;;;5.70;99.90;;;;;;4917610;29;20486;-75
2020/12/05 11:25:51;;;;;;;22.70;21.00;;;5.40;99.90;;;;;;4917935;29;20852;-75
2020/12/05 11:28:17;;;;;;;21.20;19.60;;;5.40;99.90;;;;;;4917555;29;20442;-75
2020/12/05 11:30:43;;;;;;;22.70;20.90;;;5.50;99.90;;;;;;4917446;29;20446;-75
2020/12/05 11:33:10;;;;;;;22.63;20.63;;;5.50;99.90;;;;;;4917555;29;20453;-75
2020/12/05 11:35:36;;;;;;;21.70;19.70;;;5.50;99.90;;;;;;4917435;29;20450;-74
2020/12/05 11:38:03;;;;;;;21.97;20.27;;;5.50;99.90;;;;;;4917436;29;20446;-74
2020/12/05 11:40:29;;;;;;;23.00;21.20;;;5.70;99.90;;;;;;4917326;29;20458;-74
2020/12/05 11:42:55;;;;;;;23.13;21.33;;;6.00;99.90;;;;;;4917149;29;21015;-75
2020/12/05 11:45:22;;;;;;;21.13;19.50;;;6.10;99.90;;;;;;4917452;29;20450;-75
2020/12/05 11:47:48;;;;;;;20.57;19.13;;;6.20;99.90;;;;;;4917104;29;20453;-75
2020/12/05 11:50:15;;;;;;;21.27;19.67;;;6.30;99.90;;;;;;4917021;29;20446;-74
2020/12/05 11:52:41;;;;;;;20.67;19.17;;;6.20;99.90;;;;;;4916994;29;20470;-74
2020/12/05 11:55:07;;;;;;;22.43;20.83;;;6.10;99.90;;;;;;4917527;29;20833;-74
2020/12/05 11:57:33;;;;;;;21.70;20.00;;;5.90;99.90;;;;;;4903165;29;20452;-74
2020/12/05 12:00:00;;;;;;;22.20;20.60;;;5.90;99.90;;;;;;4898218;29;20823;-75
2020/12/05 12:02:26;;;;;;;21.77;19.97;;;5.90;99.90;;;;;;4898038;29;20451;-75
2020/12/05 12:04:52;;;;;;;23.30;21.50;;;5.80;99.90;;;;;;4905911;29;20456;-75
2020/12/05 12:07:19;;;;;;;22.03;20.33;;;5.80;99.90;;;;;;4904752;29;20448;-75
2020/12/05 12:09:45;;;;;;;21.77;20.17;;;5.70;99.90;;;;;;4897824;29;20775;-75
2020/12/05 12:12:11;;;;;;;21.07;19.37;;;5.90;99.90;;;;;;4897973;29;20462;-74
2020/12/05 12:14:38;;;;;;;22.13;20.43;;;5.90;99.90;;;;;;4898103;29;20938;-75
2020/12/05 12:17:04;;;;;;;23.07;21.13;;;6.00;99.90;;;;;;4897805;29;20451;-75
2020/12/05 12:19:30;;;;;;;24.63;22.93;;;5.90;99.90;;;;;;4897785;29;20463;-75
2020/12/05 12:21:56;;;;;;;22.33;20.63;;;5.80;99.90;;;;;;4897520;29;20454;-74
2020/12/05 12:24:24;;;;;;;22.00;20.20;;;5.80;99.90;;;;;;4897806;29;20498;-74
2020/12/05 12:26:50;;;;;;;23.33;21.47;;;5.70;99.90;;;;;;4897821;29;20815;-74
2020/12/05 12:29:16;;;;;;;22.73;21.07;;;5.80;99.90;;;;;;4897679;29;20444;-74
2020/12/05 12:31:42;;;;;;;22.93;21.10;;;5.80;99.90;;;;;;4911254;29;20450;-73
2020/12/05 12:34:08;;;;;;;22.80;21.20;;;5.80;99.90;;;;;;4916579;29;20442;-74
2020/12/05 12:36:35;;;;;;;23.70;21.63;;;5.60;99.90;;;;;;4916440;29;20453;-75
2020/12/05 12:39:02;;;;;;;21.47;19.93;;;5.60;99.90;;;;;;4916475;29;20454;-75
2020/12/05 12:41:29;;;;;;;23.07;20.83;;;5.70;99.90;;;;;;4916184;29;20439;-75
2020/12/05 12:43:56;;;;;;;20.57;19.00;;;5.70;99.90;;;;;;4916282;29;20501;-75
2020/12/05 12:46:24;;;;;;;21.07;19.60;;;5.70;99.90;;;;;;4916351;29;20454;-75
2020/12/05 12:48:50;;;;;;;22.57;20.87;;;5.70;99.90;;;;;;4916380;29;20538;-74
2020/12/05 12:51:22;;;;;;;21.17;19.47;;;5.80;99.90;;;;;;4915964;29;20445;-75
2020/12/05 12:53:48;;;;;;;21.47;19.97;;;6.00;99.90;;;;;;4915772;29;20447;-75
2020/12/05 12:56:18;;;;;;;21.43;19.73;;;6.00;99.90;;;;;;4912927;29;20435;-74
2020/12/05 12:58:45;;;;;;;21.47;19.80;;;6.00;99.90;;;;;;4896963;29;20948;-75
2020/12/05 13:01:15;;;;;;;20.80;18.97;;;6.00;99.90;;;;;;4897054;29;20554;-75
2020/12/05 13:03:41;;;;;;;22.57;20.87;;;6.00;99.90;;;;;;4896857;29;20494;-75
2020/12/05 13:06:07;;;;;;;22.27;19.70;;;6.00;99.90;;;;;;4896850;29;20977;-75
2020/12/05 13:08:34;;;;;;;19.77;18.37;;;6.00;99.90;;;;;;4898932;29;20475;-75
2020/12/05 13:11:02;;;;;;;20.30;18.70;;;6.10;99.90;;;;;;4915873;29;20830;-74
2020/12/05 13:13:28;;;;;;;21.37;19.77;;;6.00;99.90;;;;;;4916748;29;20696;-75
2020/12/05 13:15:55;;;;;;;21.57;19.83;;;6.20;99.90;;;;;;4917030;29;20466;-74
2020/12/05 13:18:21;;;;;;;21.90;20.03;;;6.20;99.90;;;;;;4915899;29;20477;-74
2020/12/05 13:20:47;;;;;;;21.37;19.47;;;6.10;99.90;;;;;;4918729;29;20466;-74
2020/12/05 13:23:14;;;;;;;21.87;20.27;;;6.10;99.90;;;;;;4915837;29;20501;-75
2020/12/05 13:25:40;;;;;;;20.57;18.93;;;6.10;99.90;;;;;;4915289;29;20446;-74
2020/12/05 13:28:06;;;;;;;23.33;21.13;;;6.20;99.90;;;;;;4915583;29;20835;-75
2020/12/05 13:30:32;;;;;;;21.47;19.83;;;6.10;99.90;;;;;;4915414;29;20449;-75
2020/12/05 13:32:59;;;;;;;23.10;21.30;;;6.00;99.90;;;;;;4915194;29;20454;-75
2020/12/05 13:35:25;;;;;;;20.90;18.97;;;6.00;99.90;;;;;;4914525;29;21119;-75
2020/12/05 13:37:51;;;;;;;21.67;20.03;;;6.00;99.90;;;;;;4915451;29;20790;-75
2020/12/05 13:40:18;;;;;;;20.73;18.90;;;6.00;99.90;;;;;;4915136;29;20474;-76
2020/12/05 13:42:44;;;;;;;19.63;18.23;;;6.10;99.90;;;;;;4915084;29;20477;-76
2020/12/05 13:45:10;;;;;;;20.37;18.77;;;6.00;99.90;;;;;;4912736;29;20482;-75
2020/12/05 13:47:36;;;;;;;20.50;18.90;;;6.00;99.90;;;;;;4915116;29;20817;-75
2020/12/05 13:50:04;;;;;;;20.50;18.90;;;6.00;99.90;;;;;;4914883;29;20453;-75
2020/12/05 13:52:30;;;;;;;19.10;17.60;;;6.00;99.90;;;;;;4915136;29;20811;-75
2020/12/05 13:54:56;;;;;;;20.00;18.30;;;6.20;99.90;;;;;;4914959;29;20445;-75
2020/12/05 13:57:22;;;;;;;18.63;17.23;;;6.30;99.90;;;;;;4915151;29;20460;-75
2020/12/05 13:59:48;;;;;;;17.90;16.70;;;6.50;99.90;;;;;;4915156;29;20458;-75
2020/12/05 14:02:14;;;;;;;19.00;17.70;;;6.50;99.90;;;;;;4914959;29;20458;-75
2020/12/05 14:04:41;;;;;;;18.73;17.33;;;6.50;99.90;;;;;;4914835;29;20494;-75
2020/12/05 14:07:08;;;;;;;19.47;18.07;;;6.50;99.90;;;;;;4915123;29;20450;-75
2020/12/05 14:09:34;;;;;;;18.43;17.17;;;6.50;99.90;;;;;;4914752;29;20481;-76
2020/12/05 14:12:01;;;;;;;16.50;15.07;;;6.40;99.90;;;;;;4914884;29;20826;-75
2020/12/05 14:14:27;;;;;;;18.40;16.90;;;6.40;99.90;;;;;;4914811;29;20816;-75
2020/12/05 14:16:53;;;;;;;18.93;17.43;;;6.30;99.90;;;;;;4914769;29;20447;-75
2020/12/05 14:19:20;;;;;;;18.50;17.20;;;6.30;99.90;;;;;;4914628;29;20830;-75
2020/12/05 14:21:47;;;;;;;18.93;17.30;;;6.10;99.90;;;;;;4914653;29;20941;-75
2020/12/05 14:24:14;;;;;;;19.30;17.73;;;6.10;99.90;;;;;;4914563;29;20750;-75
2020/12/05 14:26:40;;;;;;;18.60;17.17;;;6.20;99.90;;;;;;4914687;29;20449;-75
2020/12/05 14:29:06;;;;;;;20.37;18.77;;;6.10;99.90;;;;;;4914798;29;20501;-75
2020/12/05 14:31:32;;;;;;;19.23;17.73;;;6.10;99.90;;;;;;4914536;29;20450;-75
2020/12/05 14:33:59;;;;;;;19.03;17.43;;;6.10;99.90;;;;;;4914565;29;20442;-75
2020/12/05 14:36:25;;;;;;;21.00;19.23;;;6.10;99.90;;;;;;4914528;29;20937;-75
2020/12/05 14:38:52;;;;;;;20.87;19.17;;;6.20;99.90;;;;;;4914691;29;20450;-75
2020/12/05 14:41:20;;;;;;;21.83;19.80;;;6.10;99.90;;;;;;4914335;29;20804;-75
2020/12/05 14:43:47;;;;;;;22.90;19.80;;;6.00;99.90;;;;;;4913725;29;20494;-74
2020/12/05 14:46:15;;;;;;;17.23;15.83;;;5.90;99.90;;;;;;4915649;29;20454;-74
2020/12/05 14:48:42;;;;;;;17.57;16.13;;;5.90;99.90;;;;;;4918178;29;20454;-74
2020/12/05 14:51:09;;;;;;;19.73;18.03;;;5.90;99.90;;;;;;4918163;29;20450;-75
2020/12/05 14:53:36;;;;;;;19.20;17.60;;;5.80;99.90;;;;;;4918328;29;20533;-75
2020/12/05 14:56:04;;;;;;;18.90;17.33;;;5.70;99.90;;;;;;4918616;29;20484;-75
2020/12/05 14:58:31;;;;;;;20.30;18.60;;;5.70;99.90;;;;;;4920345;29;20454;-75
2020/12/05 15:00:58;;;;;;;19.07;17.50;;;5.70;99.90;;;;;;4926979;29;20450;-75
2020/12/05 15:03:24;;;;;;;20.83;19.13;;;5.70;99.90;;;;;;4924211;29;21034;-75
2020/12/05 15:05:50;;;;;;;19.27;17.67;;;5.70;99.90;;;;;;4918442;29;20466;-75
2020/12/05 15:08:16;;;;;;;20.40;18.60;;;5.70;99.90;;;;;;4918274;29;20474;-74
2020/12/05 15:10:43;;;;;;;19.03;17.57;;;5.70;99.90;;;;;;4918307;29;20473;-75
2020/12/05 15:13:09;;;;;;;19.97;17.97;;;5.60;99.90;;;;;;4917385;29;20470;-75
2020/12/05 15:15:36;;;;;;;19.70;17.90;;;5.50;99.90;;;;;;4918453;29;20466;-75
2020/12/05 15:18:02;;;;;;;20.27;18.47;;;5.50;99.90;;;;;;4917716;29;20450;-75
2020/12/05 15:20:29;;;;;;;20.83;18.87;;;5.40;99.90;;;;;;4918188;29;20462;-75
2020/12/05 15:22:55;;;;;;;19.57;17.83;;;5.30;99.90;;;;;;4918133;29;20543;-75
2020/12/05 15:25:22;;;;;;;20.53;18.73;;;5.20;99.90;;;;;;4918404;29;20450;-75
2020/12/05 15:27:48;;;;;;;22.43;20.33;;;5.30;99.90;;;;;;4918411;29;20813;-77
2020/12/05 15:30:14;;;;;;;20.70;18.90;;;5.40;99.90;;;;;;4918269;29;20843;-76
2020/12/05 15:32:41;;;;;;;20.80;18.97;;;5.50;99.90;;;;;;4918061;29;20442;-76
2020/12/05 15:35:07;;;;;;;19.07;17.37;;;5.50;99.90;;;;;;4918217;29;20961;-76
2020/12/05 15:37:33;;;;;;;21.17;18.97;;;5.40;99.90;;;;;;4918000;29;20462;-76
2020/12/05 15:39:59;;;;;;;21.07;19.10;;;5.40;99.90;;;;;;4918191;29;20458;-76
2020/12/05 15:42:26;;;;;;;21.57;19.70;;;5.50;99.90;;;;;;4918039;29;20929;-76
2020/12/05 15:44:52;;;;;;;20.00;18.27;;;5.40;99.90;;;;;;4917979;29;20494;-77
2020/12/05 15:47:18;;;;;;;20.30;18.60;;;5.30;99.90;;;;;;4913714;29;20450;-76